createdAt,value
2022-11-02T00:01:15.729Z,97.46
2022-11-02T00:06:17.589Z,100.00
2022-11-02T00:11:19.259Z,100.00
2022-11-02T00:16:23.023Z,100.00
2022-11-02T00:21:27.109Z,100.00
2022-11-02T00:26:29.263Z,100.00
2022-11-02T00:31:30.950Z,100.00
2022-11-02T00:36:33.705Z,100.00
2022-11-02T00:41:35.287Z,100.00
2022-11-02T00:46:37.412Z,100.00
2022-11-02T00:51:39.187Z,97.96
2022-11-02T00:56:40.826Z,95.32
2022-11-02T01:01:47.445Z,93.40
2022-11-02T01:06:49.301Z,91.71
2022-11-02T01:11:51.349Z,90.96
2022-11-02T01:16:53.064Z,91.41
2022-11-02T01:21:54.760Z,91.58
2022-11-02T01:26:56.367Z,90.62
2022-11-02T01:31:58.047Z,89.87
2022-11-02T01:36:59.829Z,90.26
2022-11-02T01:42:01.728Z,90.81
2022-11-02T01:47:16.054Z,90.95
2022-11-02T01:52:24.260Z,91.46
2022-11-02T01:57:28.323Z,92.90
2022-11-02T02:02:30.188Z,94.00
2022-11-02T02:07:33.991Z,96.06
2022-11-02T02:12:39.755Z,96.10
2022-11-02T02:17:45.078Z,95.93
2022-11-02T02:23:18.841Z,96.64
2022-11-02T02:28:53.489Z,98.27
2022-11-02T02:34:03.938Z,99.91
2022-11-02T02:39:14.202Z,100.00
2022-11-02T02:44:22.450Z,100.00
2022-11-02T02:49:38.066Z,100.00
2022-11-02T02:54:43.796Z,100.00
2022-11-02T02:59:48.831Z,100.00
2022-11-02T03:04:53.427Z,100.00
2022-11-02T03:10:11.292Z,100.00
2022-11-02T03:15:19.191Z,100.00
2022-11-02T03:20:33.684Z,100.00
2022-11-02T03:25:56.857Z,100.00
2022-11-02T03:31:08.514Z,100.00
2022-11-02T03:36:19.636Z,100.00
2022-11-02T03:41:24.701Z,100.00
2022-11-02T03:46:27.678Z,100.00
2022-11-02T03:51:31.210Z,98.75
2022-11-02T03:56:41.830Z,96.57
2022-11-02T04:01:47.473Z,95.15
2022-11-02T04:06:49.670Z,95.42
2022-11-02T04:12:31.379Z,94.14
2022-11-02T04:17:51.651Z,93.26
2022-11-02T04:23:12.833Z,94.58
2022-11-02T04:28:15.881Z,96.92
2022-11-02T04:33:35.249Z,98.11
2022-11-02T04:38:50.056Z,93.95
2022-11-02T04:43:59.236Z,93.40
2022-11-02T04:49:01.490Z,92.10
2022-11-02T04:54:06.389Z,90.49
2022-11-02T04:59:08.621Z,88.48
2022-11-02T05:04:12.342Z,89.42
2022-11-02T05:09:14.769Z,88.30
2022-11-02T05:14:19.984Z,86.96
2022-11-02T05:19:22.073Z,86.52
2022-11-02T05:24:24.193Z,86.69
2022-11-02T05:29:26.779Z,86.67
2022-11-02T05:34:29.047Z,85.97
2022-11-02T05:39:30.904Z,84.87
2022-11-02T05:44:33.440Z,84.15
2022-11-02T05:49:35.473Z,84.02
2022-11-02T05:54:37.213Z,81.80
2022-11-02T05:59:38.862Z,78.96
2022-11-02T06:04:40.595Z,78.66
2022-11-02T06:09:42.379Z,80.03
2022-11-02T06:14:44.103Z,80.31
2022-11-02T06:19:45.875Z,79.82
2022-11-02T06:24:47.544Z,79.27
2022-11-02T06:29:49.182Z,80.67
2022-11-02T06:34:50.850Z,81.15
2022-11-02T06:39:52.565Z,79.33
2022-11-02T06:44:54.285Z,79.89
2022-11-02T06:49:56.208Z,79.83
2022-11-02T06:54:57.849Z,77.94
2022-11-02T07:00:04.763Z,76.89
2022-11-02T07:05:06.921Z,76.46
2022-11-02T07:10:10.761Z,77.13
2022-11-02T07:15:13.441Z,76.09
2022-11-02T07:20:15.423Z,75.93
2022-11-02T07:25:17.261Z,74.46
2022-11-02T07:30:22.226Z,74.41
2022-11-02T07:35:24.617Z,73.05
2022-11-02T07:40:27.187Z,74.33
2022-11-02T07:45:31.420Z,73.79
2022-11-02T07:50:33.008Z,72.95
2022-11-02T07:55:34.823Z,73.19
2022-11-02T08:00:38.544Z,73.42
2022-11-02T08:05:42.893Z,71.71
2022-11-02T08:10:48.723Z,73.80
2022-11-02T08:15:52.027Z,74.05
2022-11-02T08:20:56.619Z,71.87
2022-11-02T08:25:59.390Z,70.80
2022-11-02T08:31:01.156Z,69.88
2022-11-02T08:36:04.813Z,68.81
2022-11-02T08:41:06.569Z,69.55
2022-11-02T08:46:14.909Z,68.76
2022-11-02T08:51:18.177Z,66.68
2022-11-02T08:56:20.513Z,66.61
2022-11-02T09:01:27.283Z,65.96
2022-11-02T09:06:29.126Z,65.01
2022-11-02T09:11:30.943Z,67.68
2022-11-02T09:16:34.410Z,67.71
2022-11-02T09:21:39.160Z,67.77
2022-11-02T09:26:40.944Z,64.90
2022-11-02T09:31:42.702Z,65.34
2022-11-02T09:36:44.375Z,62.65
2022-11-02T09:42:01.790Z,62.29
2022-11-02T09:47:49.907Z,62.21
2022-11-02T09:52:36.028Z,62.65
2022-11-02T09:57:42.587Z,62.78
2022-11-02T10:03:00.055Z,61.95
2022-11-02T10:08:40.015Z,62.28
2022-11-02T10:13:54.176Z,59.13
2022-11-02T10:18:58.428Z,59.12
2022-11-02T10:24:10.604Z,57.40
2022-11-02T10:29:44.720Z,58.23
2022-11-02T10:34:58.543Z,60.38
2022-11-02T10:40:46.665Z,60.13
2022-11-02T10:46:05.835Z,59.80
2022-11-02T10:51:15.704Z,59.33
2022-11-02T10:56:20.253Z,60.46
2022-11-02T11:01:22.107Z,62.80
2022-11-02T11:06:26.881Z,65.84
2022-11-02T11:11:39.602Z,66.12
2022-11-02T11:16:46.452Z,65.88
2022-11-02T11:21:52.098Z,64.28
2022-11-02T11:27:12.351Z,63.30
2022-11-02T11:32:19.177Z,63.72
2022-11-02T11:37:21.673Z,63.50
2022-11-02T11:42:27.361Z,62.90
2022-11-02T11:47:38.500Z,62.06
2022-11-02T11:52:40.550Z,60.92
2022-11-02T11:57:43.816Z,61.03
2022-11-02T12:03:03.042Z,61.35
2022-11-02T12:08:31.330Z,61.21
2022-11-02T12:13:50.581Z,61.12
2022-11-02T12:19:16.951Z,60.66
2022-11-02T12:24:34.020Z,60.52
2022-11-02T12:29:45.977Z,60.10
2022-11-02T12:35:28.252Z,59.81
2022-11-02T12:41:00.187Z,61.47
2022-11-02T12:46:43.368Z,61.15
2022-11-02T12:52:25.137Z,60.90
2022-11-02T12:57:31.829Z,62.20
2022-11-02T13:02:47.942Z,63.03
2022-11-02T13:08:12.402Z,64.13
2022-11-02T13:13:28.020Z,61.97
2022-11-02T13:19:00.669Z,61.68
2022-11-02T13:24:04.723Z,62.25
2022-11-02T13:29:53.027Z,65.81
2022-11-02T13:34:55.735Z,66.64
2022-11-02T13:40:02.063Z,66.87
2022-11-02T13:45:35.855Z,67.23
2022-11-02T13:50:45.377Z,66.78
2022-11-02T13:55:55.991Z,67.66
2022-11-02T14:01:03.937Z,68.52
2022-11-02T14:06:14.626Z,69.30
2022-11-02T14:11:16.253Z,70.02
2022-11-02T14:16:42.947Z,70.25
2022-11-02T14:22:13.175Z,70.31
2022-11-02T14:27:16.611Z,71.22
2022-11-02T14:32:28.311Z,72.84
2022-11-02T14:37:57.991Z,73.87
2022-11-02T14:42:59.702Z,74.42
2022-11-02T14:48:05.696Z,74.63
2022-11-02T14:53:15.239Z,76.52
2022-11-02T14:58:26.253Z,76.79
2022-11-02T15:03:28.867Z,77.44
2022-11-02T15:08:34.766Z,78.01
2022-11-02T15:13:47.602Z,77.92
2022-11-02T15:18:49.343Z,75.83
2022-11-02T15:23:55.150Z,74.96
2022-11-02T15:29:01.328Z,72.88
2022-11-02T15:34:13.540Z,73.08
2022-11-02T15:39:18.245Z,74.27
2022-11-02T15:44:55.517Z,75.05
2022-11-02T15:50:35.200Z,75.51
2022-11-02T15:56:05.130Z,75.29
2022-11-02T16:01:26.706Z,75.51
2022-11-02T16:06:43.086Z,75.29
2022-11-02T16:12:03.119Z,74.70
2022-11-02T16:17:05.465Z,74.11
2022-11-02T16:22:09.322Z,74.40
2022-11-02T16:27:14.063Z,74.11
2022-11-02T16:32:16.148Z,73.80
2022-11-02T16:37:19.700Z,74.41
2022-11-02T16:42:25.571Z,74.44
2022-11-02T16:47:41.526Z,74.23
2022-11-02T16:52:54.266Z,74.15
2022-11-02T16:58:02.805Z,74.03
2022-11-02T17:03:11.200Z,73.95
2022-11-02T17:08:30.033Z,73.71
2022-11-02T17:13:35.718Z,73.80
2022-11-02T17:18:38.311Z,74.12
2022-11-02T17:23:43.292Z,74.04
2022-11-02T17:28:47.014Z,74.18
2022-11-02T17:33:49.713Z,74.45
2022-11-02T17:38:51.980Z,74.64
2022-11-02T17:44:16.920Z,74.29
2022-11-02T17:49:20.827Z,74.57
2022-11-02T17:54:26.675Z,74.47
2022-11-02T17:59:29.312Z,74.50
2022-11-02T18:04:31.194Z,74.66
2022-11-02T18:09:33.044Z,75.14
2022-11-02T18:14:37.325Z,75.04
2022-11-02T18:19:39.858Z,75.21
2022-11-02T18:24:43.669Z,75.35
2022-11-02T18:35:10.085Z,75.02
2022-11-02T18:40:19.423Z,74.51
2022-11-02T18:45:21.931Z,74.12
2022-11-02T18:50:24.467Z,74.04
2022-11-02T18:55:27.560Z,74.20
2022-11-02T19:00:29.393Z,73.88
2022-11-02T19:05:53.849Z,74.21
2022-11-02T19:10:58.589Z,73.84
2022-11-02T19:16:00.635Z,74.02
2022-11-02T19:21:02.365Z,74.16
2022-11-02T19:26:04.902Z,74.63
2022-11-02T19:31:08.410Z,74.37
2022-11-02T19:36:14.681Z,74.65
2022-11-02T19:41:17.596Z,74.60
2022-11-02T19:46:21.378Z,74.12
2022-11-02T19:51:28.507Z,74.15
2022-11-02T19:56:32.979Z,73.87
2022-11-02T20:02:06.953Z,73.90
2022-11-02T20:07:08.611Z,74.29
2022-11-02T20:12:10.274Z,73.83
2022-11-02T20:17:30.269Z,73.73
2022-11-02T20:22:35.582Z,73.67
2022-11-02T20:27:41.158Z,73.44
2022-11-02T20:32:43.652Z,73.60
2022-11-02T20:37:45.565Z,73.58
2022-11-02T20:42:49.642Z,73.79
2022-11-02T20:47:52.054Z,74.09
2022-11-02T20:52:55.372Z,73.96
2022-11-02T20:58:06.507Z,73.75
2022-11-02T21:03:08.981Z,74.04
2022-11-02T21:08:31.954Z,73.49
2022-11-02T21:14:01.164Z,73.34
2022-11-02T21:24:52.178Z,73.48
2022-11-02T21:29:57.326Z,73.61
2022-11-02T21:35:02.913Z,73.68
2022-11-02T21:40:08.366Z,73.76
2022-11-02T21:45:17.692Z,73.73
2022-11-02T21:50:19.757Z,73.32
2022-11-02T21:55:21.536Z,73.29
2022-11-02T22:00:43.347Z,73.28
2022-11-02T22:05:55.244Z,73.43
2022-11-02T22:10:57.618Z,73.33
2022-11-02T22:16:07.692Z,73.54
2022-11-02T22:21:10.301Z,73.96
2022-11-02T22:26:15.467Z,73.86
2022-11-02T22:31:23.026Z,74.31
2022-11-02T22:36:27.001Z,74.33
2022-11-02T22:41:38.014Z,74.24
2022-11-02T22:46:44.683Z,74.69
2022-11-02T22:51:48.952Z,74.87
2022-11-02T22:56:50.727Z,74.96
2022-11-02T23:01:52.446Z,74.77
2022-11-02T23:06:54.210Z,75.55
2022-11-02T23:11:55.871Z,75.75
2022-11-02T23:16:58.712Z,75.35
2022-11-02T23:22:21.233Z,75.32
2022-11-02T23:27:23.410Z,75.20
2022-11-02T23:32:27.866Z,75.15
2022-11-02T23:37:30.208Z,75.65
2022-11-02T23:42:32.205Z,75.35
2022-11-02T23:47:52.401Z,75.79
2022-11-02T23:53:12.913Z,75.96
2022-11-02T23:58:14.687Z,76.24
